createdAt,value
2023-01-12T00:02:00.226Z,4.98
2023-01-12T00:04:30.669Z,4.97
2023-01-12T00:07:01.830Z,4.98
2023-01-12T00:09:29.031Z,4.98
2023-01-12T00:11:56.038Z,5.01
2023-01-12T00:14:23.037Z,5.08
2023-01-12T00:16:50.059Z,5.10
2023-01-12T00:19:20.052Z,5.07
2023-01-12T00:21:59.399Z,5.06
2023-01-12T00:24:33.834Z,4.97
2023-01-12T00:27:06.590Z,4.99
2023-01-12T00:29:34.387Z,5.00
2023-01-12T00:32:01.563Z,5.11
2023-01-12T00:34:29.781Z,5.11
2023-01-12T00:36:59.600Z,5.10
2023-01-12T00:39:26.966Z,5.11
2023-01-12T00:42:12.541Z,5.16
2023-01-12T00:44:58.148Z,5.16
2023-01-12T00:47:25.511Z,5.12
2023-01-12T00:49:53.315Z,5.13
2023-01-12T00:52:30.315Z,5.09
2023-01-12T00:54:58.665Z,5.21
2023-01-12T00:57:25.779Z,5.19
2023-01-12T00:59:55.489Z,5.20
2023-01-12T01:02:23.276Z,5.21
2023-01-12T01:04:51.150Z,5.25
2023-01-12T01:07:18.720Z,5.30
2023-01-12T01:09:45.904Z,5.23
2023-01-12T01:12:13.283Z,5.34
2023-01-12T01:14:40.340Z,5.30
2023-01-12T01:17:07.362Z,5.30
2023-01-12T01:19:34.413Z,5.27
2023-01-12T01:22:01.412Z,5.30
2023-01-12T01:24:28.463Z,5.35
2023-01-12T01:26:55.478Z,5.37
2023-01-12T01:29:22.659Z,5.41
2023-01-12T01:31:49.633Z,5.33
2023-01-12T01:34:16.781Z,5.38
2023-01-12T01:36:43.823Z,5.43
2023-01-12T01:39:10.908Z,5.38
2023-01-12T01:41:38.173Z,5.46
2023-01-12T01:44:29.661Z,5.41
2023-01-12T01:47:08.149Z,5.39
2023-01-12T01:49:43.470Z,5.44
2023-01-12T01:52:18.528Z,5.42
2023-01-12T01:55:07.197Z,5.43
2023-01-12T01:57:45.350Z,5.40
2023-01-12T02:00:13.565Z,5.47
2023-01-12T02:02:43.573Z,5.50
2023-01-12T02:05:11.355Z,5.44
2023-01-12T02:07:39.096Z,5.52
2023-01-12T02:10:06.688Z,5.50
2023-01-12T02:12:52.567Z,5.54
2023-01-12T02:15:39.639Z,5.51
2023-01-12T02:18:29.179Z,5.54
2023-01-12T02:21:02.099Z,5.56
2023-01-12T02:24:05.854Z,5.59
2023-01-12T02:26:51.973Z,5.49
2023-01-12T02:30:25.904Z,5.62
2023-01-12T02:33:20.830Z,5.57
2023-01-12T02:36:37.328Z,5.61
2023-01-12T02:39:39.120Z,5.58
2023-01-12T02:42:42.339Z,5.62
2023-01-12T02:45:25.848Z,5.61
2023-01-12T02:48:04.833Z,5.64
2023-01-12T02:50:57.960Z,5.69
2023-01-12T02:53:43.517Z,5.72
2023-01-12T02:56:14.597Z,5.79
2023-01-12T02:58:48.462Z,5.79
2023-01-12T03:01:19.200Z,5.87
2023-01-12T03:03:49.107Z,5.88
2023-01-12T03:06:18.193Z,5.88
2023-01-12T03:08:48.805Z,5.93
2023-01-12T03:11:23.306Z,5.89
2023-01-12T03:13:57.150Z,5.89
2023-01-12T03:16:32.662Z,5.92
2023-01-12T03:19:09.840Z,5.93
2023-01-12T03:21:53.007Z,5.99
2023-01-12T03:24:29.198Z,5.90
2023-01-12T03:27:06.272Z,5.91
2023-01-12T03:29:46.399Z,5.97
2023-01-12T03:32:13.530Z,5.98
2023-01-12T03:34:40.679Z,6.03
2023-01-12T03:37:33.173Z,6.06
2023-01-12T03:40:17.345Z,6.05
2023-01-12T03:42:55.619Z,6.10
2023-01-12T03:45:39.931Z,6.17
2023-01-12T03:48:24.923Z,6.08
2023-01-12T03:50:57.947Z,6.13
2023-01-12T03:53:25.198Z,6.11
2023-01-12T03:56:00.411Z,6.24
2023-01-12T03:58:27.638Z,6.23
2023-01-12T04:00:54.759Z,6.21
2023-01-12T04:03:22.145Z,6.20
2023-01-12T04:05:49.207Z,6.29
2023-01-12T04:08:17.251Z,6.25
2023-01-12T04:10:44.564Z,6.24
2023-01-12T04:13:11.652Z,6.31
2023-01-12T04:15:42.474Z,6.33
2023-01-12T04:18:11.483Z,6.29
2023-01-12T04:20:39.643Z,6.35
2023-01-12T04:23:07.302Z,6.41
2023-01-12T04:25:35.156Z,6.44
2023-01-12T04:28:03.231Z,6.56
2023-01-12T04:30:32.827Z,6.48
2023-01-12T04:33:05.989Z,6.45
2023-01-12T04:35:33.026Z,6.56
2023-01-12T04:38:08.883Z,6.49
2023-01-12T04:40:35.904Z,6.62
2023-01-12T04:43:08.433Z,6.52
2023-01-12T04:45:39.849Z,6.57
2023-01-12T04:48:12.710Z,6.65
2023-01-12T04:50:41.446Z,6.67
2023-01-12T04:53:12.293Z,6.66
2023-01-12T04:55:42.919Z,6.68
2023-01-12T04:58:10.515Z,6.73
2023-01-12T05:00:37.619Z,6.67
2023-01-12T05:03:04.737Z,6.76
2023-01-12T05:05:33.928Z,6.68
2023-01-12T05:08:21.762Z,6.72
2023-01-12T05:11:01.083Z,6.65
2023-01-12T05:13:31.410Z,6.73
2023-01-12T05:16:12.506Z,6.65
2023-01-12T05:18:39.509Z,6.70
2023-01-12T05:21:06.566Z,6.76
2023-01-12T05:23:33.709Z,6.70
2023-01-12T05:26:02.419Z,6.75
2023-01-12T05:28:29.972Z,6.93
2023-01-12T05:31:11.033Z,6.87
2023-01-12T05:33:42.014Z,6.84
2023-01-12T05:36:13.265Z,6.74
2023-01-12T05:38:40.537Z,6.83
2023-01-12T05:41:10.332Z,6.86
2023-01-12T05:43:53.036Z,7.01
2023-01-12T05:46:34.463Z,6.88
2023-01-12T05:49:01.480Z,6.86
2023-01-12T05:51:30.898Z,6.87
2023-01-12T05:53:58.215Z,6.97
2023-01-12T05:56:28.070Z,6.92
2023-01-12T05:58:59.160Z,6.83
2023-01-12T06:01:28.373Z,6.85
2023-01-12T06:03:58.979Z,6.86
2023-01-12T06:06:31.383Z,6.98
2023-01-12T06:09:00.281Z,6.88
2023-01-12T06:11:46.147Z,6.97
2023-01-12T06:14:13.151Z,6.90
2023-01-12T06:16:42.750Z,6.93
2023-01-12T06:19:12.795Z,7.06
2023-01-12T06:21:40.616Z,6.95
2023-01-12T06:24:08.451Z,7.02
2023-01-12T06:26:35.456Z,6.96
2023-01-12T06:29:05.538Z,7.01
2023-01-12T06:31:33.127Z,7.05
2023-01-12T06:34:00.209Z,6.99
2023-01-12T06:36:27.221Z,7.04
2023-01-12T06:38:54.224Z,7.03
2023-01-12T06:41:40.093Z,7.05
2023-01-12T06:44:07.129Z,7.10
2023-01-12T06:46:34.199Z,7.05
2023-01-12T06:49:01.270Z,7.11
2023-01-12T06:51:28.493Z,7.18
2023-01-12T06:53:55.932Z,7.11
2023-01-12T06:56:23.076Z,7.17
2023-01-12T06:58:50.102Z,7.19
2023-01-12T07:01:17.510Z,7.20
2023-01-12T07:03:44.989Z,7.21
2023-01-12T07:06:12.901Z,7.23
2023-01-12T07:08:39.989Z,7.27
2023-01-12T07:11:15.228Z,7.25
2023-01-12T07:13:42.613Z,7.24
2023-01-12T07:16:09.877Z,7.27
2023-01-12T07:18:36.934Z,7.24
2023-01-12T07:21:10.144Z,7.26
2023-01-12T07:23:37.942Z,7.31
2023-01-12T07:26:05.225Z,7.33
2023-01-12T07:28:33.842Z,7.30
2023-01-12T07:31:06.148Z,7.40
2023-01-12T07:33:34.517Z,7.41
2023-01-12T07:36:02.640Z,7.45
2023-01-12T07:38:31.296Z,7.46
2023-01-12T07:41:04.984Z,7.51
2023-01-12T07:43:33.627Z,7.73
2023-01-12T07:46:01.125Z,7.68
2023-01-12T07:48:28.294Z,7.52
2023-01-12T07:50:58.609Z,7.64
2023-01-12T07:53:25.698Z,7.66
2023-01-12T07:55:52.681Z,7.78
2023-01-12T07:58:19.715Z,7.66
2023-01-12T08:00:46.701Z,7.69
2023-01-12T08:03:16.673Z,7.67
2023-01-12T08:05:44.036Z,7.64
2023-01-12T08:08:11.057Z,7.74
2023-01-12T08:10:38.204Z,7.60
2023-01-12T08:13:05.191Z,7.68
2023-01-12T08:15:38.929Z,7.72
2023-01-12T08:18:13.955Z,7.75
2023-01-12T08:20:41.237Z,7.82
2023-01-12T08:23:24.038Z,7.73
2023-01-12T08:25:59.207Z,7.77
2023-01-12T08:28:37.165Z,7.71
2023-01-12T08:31:05.778Z,7.81
2023-01-12T08:33:32.841Z,7.89
2023-01-12T08:35:59.866Z,7.89
2023-01-12T08:38:26.949Z,7.79
2023-01-12T08:41:12.753Z,7.94
2023-01-12T08:43:58.186Z,7.91
2023-01-12T08:46:25.240Z,8.17
2023-01-12T08:48:53.939Z,8.51
2023-01-12T08:51:21.177Z,8.91
2023-01-12T08:53:49.143Z,8.91
2023-01-12T08:56:16.149Z,9.20
2023-01-12T08:58:43.336Z,9.64
2023-01-12T09:01:13.939Z,10.25
2023-01-12T09:03:41.603Z,10.60
2023-01-12T09:06:21.711Z,10.79
2023-01-12T09:08:53.111Z,11.26
2023-01-12T09:11:20.421Z,11.85
2023-01-12T09:13:47.569Z,12.53
2023-01-12T09:16:16.778Z,12.48
2023-01-12T09:18:44.259Z,12.25
2023-01-12T09:21:15.857Z,12.10
2023-01-12T09:23:43.968Z,11.75
2023-01-12T09:26:15.159Z,11.53
2023-01-12T09:28:45.747Z,12.10
2023-01-12T09:31:19.926Z,12.77
2023-01-12T09:33:47.637Z,13.19
2023-01-12T09:36:18.265Z,13.69
2023-01-12T09:38:47.179Z,14.13
2023-01-12T09:41:57.579Z,14.30
2023-01-12T09:45:00.409Z,14.30
2023-01-12T09:47:56.386Z,14.80
2023-01-12T09:50:29.146Z,15.13
2023-01-12T09:53:11.880Z,15.66
2023-01-12T09:56:12.231Z,16.10
2023-01-12T09:59:05.438Z,16.34
2023-01-12T10:01:32.626Z,16.75
2023-01-12T10:04:01.670Z,17.06
2023-01-12T10:06:29.088Z,17.34
2023-01-12T10:09:20.517Z,17.64
2023-01-12T10:12:05.123Z,17.93
2023-01-12T10:15:03.830Z,18.24
2023-01-12T10:17:55.105Z,18.20
2023-01-12T10:20:39.381Z,18.33
2023-01-12T10:23:11.423Z,18.51
2023-01-12T10:25:55.801Z,18.57
2023-01-12T10:28:33.590Z,18.63
2023-01-12T10:31:01.447Z,18.93
2023-01-12T10:33:31.768Z,18.88
2023-01-12T10:36:08.854Z,18.92
2023-01-12T10:38:56.868Z,19.11
2023-01-12T10:41:29.196Z,18.97
2023-01-12T10:43:58.901Z,19.01
2023-01-12T10:46:34.392Z,19.12
2023-01-12T10:49:33.879Z,19.08
2023-01-12T10:52:23.998Z,19.10
2023-01-12T10:54:51.052Z,19.08
2023-01-12T10:57:23.821Z,19.18
2023-01-12T10:59:55.943Z,19.16
2023-01-12T11:02:26.352Z,19.11
2023-01-12T11:04:54.690Z,19.17
2023-01-12T11:07:26.574Z,19.16
2023-01-12T11:09:55.271Z,19.16
2023-01-12T11:12:42.708Z,18.80
2023-01-12T11:15:12.814Z,18.87
2023-01-12T11:17:43.895Z,18.81
2023-01-12T11:20:39.744Z,18.70
2023-01-12T11:23:19.791Z,18.77
2023-01-12T11:25:49.893Z,18.60
2023-01-12T11:28:25.850Z,18.45
2023-01-12T11:31:14.797Z,18.13
2023-01-12T11:33:49.509Z,18.05
2023-01-12T11:36:37.551Z,18.04
2023-01-12T11:39:15.307Z,18.01
2023-01-12T11:42:21.155Z,17.84
2023-01-12T11:45:17.782Z,17.36
2023-01-12T11:47:56.529Z,17.17
2023-01-12T11:50:36.500Z,17.09
2023-01-12T11:53:05.974Z,16.98
2023-01-12T11:56:26.687Z,16.63
2023-01-12T11:59:20.429Z,16.74
2023-01-12T12:01:53.039Z,16.90
2023-01-12T12:04:48.134Z,16.40
2023-01-12T12:07:27.756Z,16.18
2023-01-12T12:10:42.410Z,16.01
2023-01-12T12:13:27.761Z,15.70
2023-01-12T12:16:09.418Z,15.64
2023-01-12T12:19:09.455Z,15.48
2023-01-12T12:21:55.690Z,15.27
2023-01-12T12:24:54.352Z,15.11
2023-01-12T12:28:02.717Z,14.72
2023-01-12T12:31:00.310Z,14.64
2023-01-12T12:34:31.752Z,14.62
2023-01-12T12:37:55.695Z,14.39
2023-01-12T12:40:28.500Z,14.01
2023-01-12T12:43:42.016Z,13.75
2023-01-12T12:46:49.091Z,13.51
2023-01-12T12:49:22.254Z,13.32
2023-01-12T12:51:51.020Z,13.24
2023-01-12T12:54:20.985Z,13.18
2023-01-12T12:56:48.974Z,13.00
2023-01-12T12:59:34.305Z,12.93
2023-01-12T13:02:03.558Z,12.90
2023-01-12T13:04:42.883Z,12.88
2023-01-12T13:07:21.330Z,12.75
2023-01-12T13:09:50.013Z,12.72
2023-01-12T13:12:37.883Z,12.56
2023-01-12T13:15:22.074Z,12.37
2023-01-12T13:17:52.923Z,12.47
2023-01-12T13:20:25.567Z,12.22
2023-01-12T13:22:53.547Z,12.07
2023-01-12T13:25:20.517Z,12.01
2023-01-12T13:28:01.341Z,11.85
2023-01-12T13:30:28.322Z,11.81
2023-01-12T13:32:55.189Z,11.76
2023-01-12T13:35:45.144Z,11.59
2023-01-12T13:38:34.193Z,11.51
2023-01-12T13:41:47.229Z,11.48
2023-01-12T13:44:31.649Z,11.46
2023-01-12T13:47:16.153Z,11.30
2023-01-12T13:49:57.147Z,11.24
2023-01-12T13:52:37.188Z,11.17
2023-01-12T13:55:20.391Z,11.11
2023-01-12T13:58:01.206Z,11.08
2023-01-12T14:00:32.348Z,11.00
2023-01-12T14:03:01.622Z,10.94
2023-01-12T14:05:42.377Z,11.00
2023-01-12T14:08:32.273Z,10.85
2023-01-12T14:11:28.979Z,10.82
2023-01-12T14:14:44.101Z,10.80
2023-01-12T14:17:51.909Z,10.63
2023-01-12T14:20:26.655Z,10.59
2023-01-12T14:23:27.278Z,10.43
2023-01-12T14:26:09.321Z,10.45
2023-01-12T14:28:38.884Z,10.45
2023-01-12T14:31:15.491Z,10.36
2023-01-12T14:33:53.772Z,10.26
2023-01-12T14:36:42.441Z,10.23
2023-01-12T14:39:17.039Z,10.20
2023-01-12T14:42:07.975Z,10.10
2023-01-12T14:44:57.538Z,10.03
2023-01-12T14:47:33.179Z,9.89
2023-01-12T14:50:12.876Z,9.84
2023-01-12T14:52:45.849Z,9.85
2023-01-12T14:55:42.378Z,9.73
2023-01-12T14:58:21.404Z,9.63
2023-01-12T15:00:48.424Z,9.63
2023-01-12T15:03:28.814Z,9.65
2023-01-12T15:06:02.728Z,9.57
2023-01-12T15:08:31.204Z,9.50
2023-01-12T15:11:05.001Z,9.43
2023-01-12T15:13:34.751Z,9.40
2023-01-12T15:16:22.658Z,9.41
2023-01-12T15:19:16.101Z,9.35
2023-01-12T15:22:04.577Z,9.25
2023-01-12T15:24:54.504Z,9.21
2023-01-12T15:27:23.593Z,9.22
2023-01-12T15:29:51.225Z,9.16
2023-01-12T15:32:52.132Z,9.10
2023-01-12T15:35:24.138Z,9.08
2023-01-12T15:37:55.200Z,9.02
2023-01-12T15:40:24.704Z,8.99
2023-01-12T15:42:53.514Z,8.97
2023-01-12T15:45:29.547Z,8.93
2023-01-12T15:47:56.692Z,8.91
2023-01-12T15:50:24.156Z,8.82
2023-01-12T15:52:51.328Z,8.90
2023-01-12T15:55:21.295Z,8.77
2023-01-12T15:57:50.822Z,9.04
2023-01-12T16:00:23.726Z,8.87
2023-01-12T16:02:52.393Z,8.79
2023-01-12T16:05:23.474Z,8.79
2023-01-12T16:07:50.748Z,8.71
2023-01-12T16:10:18.421Z,8.59
2023-01-12T16:12:45.998Z,8.60
2023-01-12T16:15:21.389Z,8.52
2023-01-12T16:17:48.977Z,8.51
2023-01-12T16:20:19.170Z,8.63
2023-01-12T16:22:47.644Z,8.50
2023-01-12T16:25:15.768Z,8.49
2023-01-12T16:27:43.049Z,8.81
2023-01-12T16:30:14.602Z,8.48
2023-01-12T16:32:46.492Z,8.41
2023-01-12T16:35:15.504Z,8.36
2023-01-12T16:37:42.930Z,8.42
2023-01-12T16:40:11.425Z,8.45
2023-01-12T16:42:38.617Z,8.26
2023-01-12T16:45:06.396Z,8.21
2023-01-12T16:47:33.536Z,8.21
2023-01-12T16:50:00.658Z,8.29
2023-01-12T16:52:27.822Z,8.13
2023-01-12T16:54:54.906Z,8.14
2023-01-12T16:57:22.029Z,8.08
2023-01-12T16:59:50.877Z,8.09
2023-01-12T17:02:19.010Z,8.01
2023-01-12T17:04:48.519Z,7.99
2023-01-12T17:07:15.754Z,8.04
2023-01-12T17:09:43.146Z,7.92
2023-01-12T17:12:10.948Z,8.03
2023-01-12T17:14:38.212Z,7.92
2023-01-12T17:17:09.392Z,7.88
2023-01-12T17:19:38.793Z,7.90
2023-01-12T17:22:08.115Z,7.78
2023-01-12T17:24:39.680Z,7.99
2023-01-12T17:27:07.989Z,7.88
2023-01-12T17:29:35.287Z,7.76
2023-01-12T17:32:05.296Z,7.63
2023-01-12T17:34:38.221Z,7.77
2023-01-12T17:37:08.515Z,7.65
2023-01-12T17:39:40.717Z,7.61
2023-01-12T17:42:51.662Z,7.55
2023-01-12T17:45:18.866Z,7.59
2023-01-12T17:47:45.907Z,7.56
2023-01-12T17:50:13.615Z,7.48
2023-01-12T17:52:40.711Z,7.63
2023-01-12T17:55:08.081Z,7.60
2023-01-12T17:57:36.731Z,7.51
2023-01-12T18:00:10.312Z,7.51
2023-01-12T18:02:37.339Z,7.43
2023-01-12T18:05:04.802Z,7.51
2023-01-12T18:07:32.146Z,7.46
2023-01-12T18:09:59.224Z,7.59
2023-01-12T18:12:27.479Z,7.41
2023-01-12T18:14:58.433Z,7.35
2023-01-12T18:17:25.523Z,7.29
2023-01-12T18:19:52.828Z,7.29
2023-01-12T18:22:19.957Z,7.30
2023-01-12T18:24:47.214Z,7.35
2023-01-12T18:27:14.317Z,7.41
2023-01-12T18:29:41.460Z,7.38
2023-01-12T18:32:09.265Z,7.30
2023-01-12T18:34:38.365Z,7.39
2023-01-12T18:37:05.434Z,7.33
2023-01-12T18:39:32.595Z,7.31
2023-01-12T18:42:18.594Z,7.25
2023-01-12T18:44:46.486Z,7.27
2023-01-12T18:47:35.438Z,7.41
2023-01-12T18:50:31.332Z,7.25
2023-01-12T18:53:17.321Z,7.35
2023-01-12T18:55:44.445Z,7.28
2023-01-12T18:58:11.489Z,7.25
2023-01-12T19:00:38.903Z,7.25
2023-01-12T19:03:06.298Z,7.24
2023-01-12T19:05:41.353Z,7.27
2023-01-12T19:08:27.338Z,7.32
2023-01-12T19:10:55.464Z,7.25
2023-01-12T19:13:41.429Z,7.26
2023-01-12T19:16:32.653Z,7.27
2023-01-12T19:18:59.674Z,7.30
2023-01-12T19:21:45.536Z,7.34
2023-01-12T19:24:31.151Z,7.30
2023-01-12T19:27:16.802Z,7.36
2023-01-12T19:29:44.939Z,7.39
2023-01-12T19:32:12.046Z,7.36
2023-01-12T19:34:39.037Z,7.53
2023-01-12T19:37:06.383Z,7.46
2023-01-12T19:40:00.903Z,7.40
2023-01-12T19:42:47.978Z,7.39
2023-01-12T19:45:15.101Z,7.41
2023-01-12T19:47:42.392Z,7.58
2023-01-12T19:50:12.438Z,7.51
2023-01-12T19:52:42.362Z,7.64
2023-01-12T19:55:13.245Z,7.73
2023-01-12T19:57:43.058Z,7.72
2023-01-12T20:00:15.200Z,7.73
2023-01-12T20:02:44.158Z,7.58
2023-01-12T20:05:13.645Z,7.55
2023-01-12T20:07:40.859Z,7.53
2023-01-12T20:10:09.067Z,7.51
2023-01-12T20:12:36.129Z,7.48
2023-01-12T20:15:03.565Z,7.49
2023-01-12T20:17:30.608Z,7.52
2023-01-12T20:19:57.645Z,7.58
2023-01-12T20:22:24.691Z,7.67
2023-01-12T20:24:51.696Z,7.65
2023-01-12T20:27:18.922Z,7.72
2023-01-12T20:29:45.959Z,7.61
2023-01-12T20:32:12.985Z,7.59
2023-01-12T20:34:39.997Z,7.59
2023-01-12T20:37:07.043Z,7.54
2023-01-12T20:39:34.414Z,7.47
2023-01-12T20:42:01.499Z,7.50
2023-01-12T20:44:28.873Z,7.58
2023-01-12T20:46:56.188Z,7.80
2023-01-12T20:49:23.339Z,7.70
2023-01-12T20:51:50.457Z,7.62
2023-01-12T20:54:17.593Z,7.71
2023-01-12T20:56:44.609Z,7.69
2023-01-12T20:59:12.814Z,7.60
2023-01-12T21:01:39.927Z,7.55
2023-01-12T21:04:07.009Z,7.61
2023-01-12T21:06:34.058Z,7.93
2023-01-12T21:09:01.272Z,7.64
2023-01-12T21:11:28.291Z,7.52
2023-01-12T21:13:56.837Z,7.97
2023-01-12T21:16:23.917Z,8.05
2023-01-12T21:18:51.848Z,7.82
2023-01-12T21:21:18.901Z,7.77
2023-01-12T21:23:46.556Z,8.06
2023-01-12T21:26:13.869Z,7.81
2023-01-12T21:28:41.181Z,7.89
2023-01-12T21:31:12.025Z,7.82
2023-01-12T21:33:39.153Z,7.93
2023-01-12T21:36:07.063Z,8.01
2023-01-12T21:38:34.295Z,7.86
2023-01-12T21:41:04.460Z,7.84
2023-01-12T21:43:32.434Z,8.00
2023-01-12T21:46:07.430Z,7.95
2023-01-12T21:48:34.837Z,7.91
2023-01-12T21:51:07.527Z,8.05
2023-01-12T21:53:35.057Z,8.13
2023-01-12T21:56:04.848Z,8.34
2023-01-12T21:58:35.098Z,8.09
2023-01-12T22:01:12.087Z,8.01
2023-01-12T22:03:39.969Z,8.17
2023-01-12T22:06:10.911Z,8.51
2023-01-12T22:08:41.245Z,8.19
2023-01-12T22:11:12.198Z,8.35
2023-01-12T22:13:40.015Z,8.09
2023-01-12T22:16:10.697Z,8.02
2023-01-12T22:18:39.072Z,8.01
2023-01-12T22:21:09.591Z,8.07
2023-01-12T22:23:38.001Z,8.17
2023-01-12T22:26:10.721Z,8.35
2023-01-12T22:28:40.951Z,8.08
2023-01-12T22:31:12.470Z,8.20
2023-01-12T22:33:40.248Z,8.02
2023-01-12T22:36:08.188Z,7.96
2023-01-12T22:38:35.476Z,8.32
2023-01-12T22:41:07.883Z,8.15
2023-01-12T22:43:40.690Z,8.18
2023-01-12T22:46:20.934Z,7.90
2023-01-12T22:48:50.289Z,8.35
2023-01-12T22:51:20.279Z,8.13
2023-01-12T22:53:48.443Z,8.20
2023-01-12T22:56:16.150Z,8.06
2023-01-12T22:58:54.162Z,8.04
2023-01-12T23:01:25.552Z,8.37
2023-01-12T23:03:54.926Z,8.36
2023-01-12T23:06:23.120Z,8.34
2023-01-12T23:08:50.747Z,8.12
2023-01-12T23:11:21.083Z,8.01
2023-01-12T23:13:48.984Z,7.98
2023-01-12T23:16:18.295Z,7.94
2023-01-12T23:18:47.482Z,7.95
2023-01-12T23:21:19.191Z,7.94
2023-01-12T23:23:53.550Z,7.83
2023-01-12T23:26:24.982Z,8.23
2023-01-12T23:28:56.303Z,8.10
2023-01-12T23:31:27.724Z,8.00
2023-01-12T23:33:57.072Z,7.93
2023-01-12T23:36:27.615Z,7.87
2023-01-12T23:39:00.451Z,8.15
2023-01-12T23:41:29.397Z,8.09
2023-01-12T23:44:02.091Z,8.10
2023-01-12T23:46:33.242Z,8.01
2023-01-12T23:49:00.429Z,7.95
2023-01-12T23:51:29.634Z,7.90
2023-01-12T23:54:00.575Z,8.07
2023-01-12T23:56:32.003Z,8.19
2023-01-12T23:58:59.345Z,7.98
